createdAt,value
2019-03-20T00:00:01.203Z,18.87
2019-03-20T00:01:12.769Z,19.45
2019-03-20T00:02:20.174Z,18.15
2019-03-20T00:03:27.470Z,18.50
2019-03-20T00:04:35.989Z,19.00
2019-03-20T00:05:43.586Z,18.02
2019-03-20T00:06:50.735Z,19.25
2019-03-20T00:07:57.988Z,20.02
2019-03-20T00:09:06.801Z,19.60
2019-03-20T00:10:14.401Z,19.05
2019-03-20T00:11:21.687Z,19.55
2019-03-20T00:12:29.031Z,18.65
2019-03-20T00:13:36.417Z,18.75
2019-03-20T00:14:44.522Z,18.40
2019-03-20T00:15:52.704Z,18.32
2019-03-20T00:16:59.971Z,18.85
2019-03-20T00:18:07.747Z,19.55
2019-03-20T00:19:15.279Z,19.32
2019-03-20T00:20:22.539Z,19.85
2019-03-20T00:21:29.961Z,19.23
2019-03-20T00:22:36.952Z,19.27
2019-03-20T00:23:44.402Z,17.90
2019-03-20T00:24:51.848Z,19.05
2019-03-20T00:25:59.184Z,19.67
2019-03-20T00:27:06.868Z,19.32
2019-03-20T00:28:14.407Z,20.02
2019-03-20T00:29:21.545Z,19.60
2019-03-20T00:30:28.890Z,19.70
2019-03-20T00:31:36.317Z,19.27
2019-03-20T00:32:44.150Z,18.80
2019-03-20T00:33:52.640Z,19.55
2019-03-20T00:35:01.292Z,18.17
2019-03-20T00:36:09.426Z,18.85
2019-03-20T00:37:16.732Z,19.25
2019-03-20T00:38:24.770Z,19.15
2019-03-20T00:39:32.108Z,19.27
2019-03-20T00:40:39.661Z,19.87
2019-03-20T00:41:47.127Z,18.65
2019-03-20T00:42:54.666Z,19.02
2019-03-20T00:44:02.351Z,19.07
2019-03-20T00:45:10.655Z,18.87
2019-03-20T00:46:18.108Z,19.80
2019-03-20T00:47:25.728Z,19.77
2019-03-20T00:48:33.297Z,18.82
2019-03-20T00:49:40.768Z,22.58
2019-03-20T00:50:48.618Z,21.07
2019-03-20T00:51:56.854Z,19.98
2019-03-20T00:53:04.005Z,21.27
2019-03-20T00:54:11.476Z,21.68
2019-03-20T00:55:19.064Z,22.52
2019-03-20T00:56:26.799Z,22.48
2019-03-20T00:57:34.287Z,22.25
2019-03-20T00:58:42.010Z,23.18
2019-03-20T00:59:49.249Z,22.48
2019-03-20T01:00:56.598Z,22.52
2019-03-20T01:02:03.965Z,22.25
2019-03-20T01:03:11.273Z,22.07
2019-03-20T01:04:18.737Z,22.55
2019-03-20T01:05:26.466Z,21.82
2019-03-20T01:06:35.499Z,22.82
2019-03-20T01:07:42.934Z,22.65
2019-03-20T01:08:50.885Z,23.32
2019-03-20T01:09:57.946Z,21.97
2019-03-20T01:11:07.858Z,21.73
2019-03-20T01:12:17.625Z,24.10
2019-03-20T01:13:24.926Z,22.55
2019-03-20T01:14:32.457Z,23.25
2019-03-20T01:15:39.862Z,21.95
2019-03-20T01:16:47.429Z,23.18
2019-03-20T01:17:54.660Z,22.42
2019-03-20T01:19:01.917Z,21.52
2019-03-20T01:20:09.670Z,22.55
2019-03-20T01:21:17.230Z,22.82
2019-03-20T01:22:25.086Z,22.22
2019-03-20T01:23:32.304Z,22.22
2019-03-20T01:24:40.688Z,20.70
2019-03-20T01:25:48.078Z,22.48
2019-03-20T01:26:55.426Z,21.60
2019-03-20T01:28:02.483Z,21.87
2019-03-20T01:29:09.716Z,23.47
2019-03-20T01:30:35.694Z,24.20
2019-03-20T01:31:42.465Z,23.05
2019-03-20T01:32:50.076Z,22.22
2019-03-20T01:33:58.033Z,21.75
2019-03-20T01:35:05.718Z,23.27
2019-03-20T01:36:13.036Z,23.60
2019-03-20T01:37:20.400Z,23.35
2019-03-20T01:38:27.932Z,22.05
2019-03-20T01:39:35.188Z,22.50
2019-03-20T01:40:42.438Z,22.62
2019-03-20T01:41:49.710Z,23.42
2019-03-20T01:42:57.208Z,22.87
2019-03-20T01:44:04.695Z,23.32
2019-03-20T01:45:13.125Z,23.85
2019-03-20T01:46:20.588Z,23.10
2019-03-20T01:47:28.919Z,22.93
2019-03-20T01:48:36.091Z,23.35
2019-03-20T01:49:43.436Z,23.40
2019-03-20T01:50:51.138Z,23.90
2019-03-20T01:51:58.702Z,24.65
2019-03-20T01:53:06.884Z,24.02
2019-03-20T01:54:15.817Z,23.87
2019-03-20T01:55:23.368Z,23.87
2019-03-20T01:56:30.744Z,23.27
2019-03-20T01:57:37.937Z,24.63
2019-03-20T01:58:45.249Z,26.00
2019-03-20T01:59:52.655Z,22.95
2019-03-20T02:01:00.798Z,23.60
2019-03-20T02:02:07.958Z,23.10
2019-03-20T02:03:15.289Z,23.98
2019-03-20T02:04:22.667Z,22.80
2019-03-20T02:05:35.655Z,22.85
2019-03-20T02:06:39.858Z,24.23
2019-03-20T02:07:47.210Z,21.97
2019-03-20T02:08:54.528Z,22.27
2019-03-20T02:10:02.187Z,23.18
2019-03-20T02:11:09.461Z,24.05
2019-03-20T02:12:16.850Z,23.27
2019-03-20T02:13:24.106Z,24.37
2019-03-20T02:14:31.142Z,23.15
2019-03-20T02:15:40.810Z,23.15
2019-03-20T02:16:47.917Z,22.20
2019-03-20T02:17:55.378Z,22.13
2019-03-20T02:19:02.902Z,21.62
2019-03-20T02:20:11.869Z,22.98
2019-03-20T02:21:19.407Z,22.20
2019-03-20T02:22:26.753Z,21.70
2019-03-20T02:23:33.777Z,22.60
2019-03-20T02:24:42.110Z,23.32
2019-03-20T02:25:49.534Z,21.85
2019-03-20T02:26:56.790Z,22.95
2019-03-20T02:28:04.172Z,22.93
2019-03-20T02:29:12.539Z,22.27
2019-03-20T02:30:19.834Z,23.65
2019-03-20T02:31:27.519Z,23.07
2019-03-20T02:32:35.019Z,23.07
2019-03-20T02:33:42.292Z,23.52
2019-03-20T02:34:50.356Z,22.77
2019-03-20T02:35:58.531Z,23.30
2019-03-20T02:37:05.759Z,21.35
2019-03-20T02:38:13.448Z,23.65
2019-03-20T02:39:20.941Z,22.15
2019-03-20T02:40:28.363Z,23.27
2019-03-20T02:41:35.350Z,22.70
2019-03-20T02:42:43.095Z,22.05
2019-03-20T02:43:50.443Z,22.58
2019-03-20T02:44:57.931Z,22.65
2019-03-20T02:46:05.830Z,23.12
2019-03-20T02:47:13.100Z,22.60
2019-03-20T02:48:20.268Z,22.50
2019-03-20T02:49:27.668Z,21.55
2019-03-20T02:50:35.049Z,22.55
2019-03-20T02:51:42.727Z,22.40
2019-03-20T02:52:50.139Z,21.45
2019-03-20T02:53:57.501Z,22.15
2019-03-20T02:55:05.368Z,22.80
2019-03-20T02:56:12.959Z,22.55
2019-03-20T02:57:20.589Z,22.32
2019-03-20T02:58:29.347Z,23.40
2019-03-20T02:59:36.643Z,20.92
2019-03-20T03:00:43.992Z,22.37
2019-03-20T03:01:51.904Z,21.48
2019-03-20T03:02:59.420Z,21.60
2019-03-20T03:04:06.970Z,22.48
2019-03-20T03:05:14.367Z,22.90
2019-03-20T03:06:22.198Z,22.50
2019-03-20T03:07:29.710Z,22.02
2019-03-20T03:08:37.185Z,21.42
2019-03-20T03:09:44.692Z,22.45
2019-03-20T03:10:51.782Z,20.05
2019-03-20T03:11:59.108Z,21.52
2019-03-20T03:13:06.685Z,22.90
2019-03-20T03:14:14.088Z,22.15
2019-03-20T03:15:21.848Z,22.35
2019-03-20T03:16:29.619Z,22.45
2019-03-20T03:17:36.881Z,21.33
2019-03-20T03:18:44.383Z,22.20
2019-03-20T03:19:52.103Z,22.30
2019-03-20T03:20:59.412Z,21.77
2019-03-20T03:22:06.771Z,22.00
2019-03-20T03:23:14.082Z,21.87
2019-03-20T03:24:21.409Z,21.40
2019-03-20T03:25:28.827Z,23.95
2019-03-20T03:26:36.182Z,20.52
2019-03-20T03:27:43.696Z,21.57
2019-03-20T03:28:51.276Z,21.55
2019-03-20T03:29:58.515Z,22.60
2019-03-20T03:31:05.906Z,21.97
2019-03-20T03:32:13.091Z,21.80
2019-03-20T03:33:20.687Z,20.35
2019-03-20T03:34:28.330Z,23.00
2019-03-20T03:35:35.750Z,22.00
2019-03-20T03:36:43.199Z,21.37
2019-03-20T03:37:50.498Z,22.77
2019-03-20T03:38:57.572Z,22.37
2019-03-20T03:40:05.353Z,21.27
2019-03-20T03:41:12.814Z,21.87
2019-03-20T03:42:20.728Z,22.90
2019-03-20T03:43:28.141Z,22.00
2019-03-20T03:44:35.388Z,22.13
2019-03-20T03:45:42.979Z,22.00
2019-03-20T03:46:50.391Z,21.10
2019-03-20T03:47:57.465Z,21.42
2019-03-20T03:49:04.754Z,22.52
2019-03-20T03:50:16.194Z,21.17
2019-03-20T03:51:23.399Z,22.10
2019-03-20T03:52:32.074Z,21.45
2019-03-20T03:53:39.477Z,20.70
2019-03-20T03:54:46.830Z,21.62
2019-03-20T03:55:54.012Z,22.80
2019-03-20T03:57:01.518Z,22.50
2019-03-20T03:58:08.551Z,21.82
2019-03-20T03:59:16.358Z,22.15
2019-03-20T04:00:23.967Z,22.50
2019-03-20T04:01:31.239Z,22.20
2019-03-20T04:02:38.559Z,21.48
2019-03-20T04:03:45.778Z,22.48
2019-03-20T04:04:53.230Z,21.30
2019-03-20T04:06:00.551Z,21.82
2019-03-20T04:07:08.899Z,21.77
2019-03-20T04:08:16.168Z,22.40
2019-03-20T04:09:23.834Z,21.15
2019-03-20T04:10:31.049Z,22.02
2019-03-20T04:11:38.351Z,21.62
2019-03-20T04:12:45.719Z,21.85
2019-03-20T04:13:52.987Z,22.45
2019-03-20T04:15:00.443Z,22.25
2019-03-20T04:16:08.303Z,22.45
2019-03-20T04:17:26.589Z,21.73
2019-03-20T04:18:34.092Z,21.55
2019-03-20T04:19:41.456Z,21.73
2019-03-20T04:20:49.061Z,22.27
2019-03-20T04:21:56.649Z,21.27
2019-03-20T04:23:04.150Z,21.95
2019-03-20T04:24:11.303Z,22.00
2019-03-20T04:25:18.922Z,21.05
2019-03-20T04:26:26.030Z,20.72
2019-03-20T04:27:33.538Z,22.75
2019-03-20T04:28:40.910Z,22.40
2019-03-20T04:29:48.632Z,22.42
2019-03-20T04:30:56.031Z,22.00
2019-03-20T04:32:04.079Z,21.62
2019-03-20T04:33:15.309Z,22.37
2019-03-20T04:34:22.488Z,23.77
2019-03-20T04:35:29.799Z,23.50
2019-03-20T04:36:47.177Z,22.32
2019-03-20T04:37:47.419Z,22.82
2019-03-20T04:38:54.812Z,22.80
2019-03-20T04:40:02.398Z,23.38
2019-03-20T04:41:09.970Z,23.77
2019-03-20T04:42:19.626Z,23.30
2019-03-20T04:43:27.556Z,22.37
2019-03-20T04:44:34.743Z,24.15
2019-03-20T04:45:42.022Z,23.75
2019-03-20T04:46:49.555Z,23.57
2019-03-20T04:47:56.758Z,22.30
2019-03-20T04:49:03.991Z,21.90
2019-03-20T04:50:11.778Z,23.22
2019-03-20T04:51:19.120Z,22.22
2019-03-20T04:52:26.561Z,23.12
2019-03-20T04:53:34.118Z,22.58
2019-03-20T04:54:43.804Z,23.60
2019-03-20T04:55:51.053Z,22.62
2019-03-20T04:56:58.690Z,23.80
2019-03-20T04:58:06.447Z,21.70
2019-03-20T04:59:14.022Z,21.17
2019-03-20T05:00:21.739Z,22.45
2019-03-20T05:01:29.058Z,21.93
2019-03-20T05:02:36.372Z,23.22
2019-03-20T05:03:43.817Z,21.48
2019-03-20T05:04:51.070Z,21.68
2019-03-20T05:05:58.784Z,22.22
2019-03-20T05:07:06.290Z,21.30
2019-03-20T05:08:13.901Z,22.17
2019-03-20T05:09:21.437Z,20.35
2019-03-20T05:10:28.932Z,22.27
2019-03-20T05:11:36.493Z,21.95
2019-03-20T05:12:44.271Z,21.48
2019-03-20T05:13:51.762Z,21.82
2019-03-20T05:14:59.479Z,20.72
2019-03-20T05:16:06.727Z,21.87
2019-03-20T05:17:14.222Z,21.62
2019-03-20T05:18:21.533Z,21.33
2019-03-20T05:19:28.437Z,20.70
2019-03-20T05:20:35.767Z,21.23
2019-03-20T05:21:43.790Z,20.43
2019-03-20T05:22:50.909Z,21.50
2019-03-20T05:23:58.211Z,20.70
2019-03-20T05:25:05.682Z,21.85
2019-03-20T05:26:13.647Z,22.80
2019-03-20T05:27:24.182Z,21.52
2019-03-20T05:28:31.588Z,21.30
2019-03-20T05:29:38.639Z,21.42
2019-03-20T05:30:46.827Z,21.90
2019-03-20T05:31:54.089Z,20.95
2019-03-20T05:33:01.340Z,21.37
2019-03-20T05:34:08.794Z,22.37
2019-03-20T05:35:17.139Z,21.55
2019-03-20T05:36:24.473Z,22.27
2019-03-20T05:37:31.759Z,21.23
2019-03-20T05:38:39.126Z,21.80
2019-03-20T05:39:46.051Z,22.40
2019-03-20T05:40:53.409Z,22.37
2019-03-20T05:42:00.768Z,21.87
2019-03-20T05:43:09.004Z,22.30
2019-03-20T05:44:16.672Z,21.80
2019-03-20T05:45:24.446Z,22.58
2019-03-20T05:46:32.045Z,22.98
2019-03-20T05:47:39.731Z,21.45
2019-03-20T05:48:47.479Z,21.90
2019-03-20T05:49:54.999Z,22.65
2019-03-20T05:51:02.620Z,23.32
2019-03-20T05:52:10.155Z,21.93
2019-03-20T05:53:17.669Z,22.93
2019-03-20T05:54:25.028Z,21.75
2019-03-20T05:55:34.232Z,22.98
2019-03-20T05:56:42.161Z,22.17
2019-03-20T05:57:49.590Z,23.22
2019-03-20T05:58:57.356Z,22.50
2019-03-20T06:00:04.974Z,24.80
2019-03-20T06:01:11.828Z,25.57
2019-03-20T06:02:18.581Z,25.77
2019-03-20T06:03:26.198Z,25.75
2019-03-20T06:04:33.839Z,25.25
2019-03-20T06:05:41.198Z,25.50
2019-03-20T06:06:48.811Z,26.25
2019-03-20T06:07:55.994Z,25.27
2019-03-20T06:09:04.219Z,25.88
2019-03-20T06:10:12.746Z,24.63
2019-03-20T06:11:19.951Z,24.87
2019-03-20T06:12:27.510Z,25.85
2019-03-20T06:13:35.074Z,25.52
2019-03-20T06:14:42.640Z,26.02
2019-03-20T06:15:50.863Z,26.97
2019-03-20T06:16:58.586Z,28.25
2019-03-20T06:18:05.948Z,25.40
2019-03-20T06:19:13.301Z,24.15
2019-03-20T06:20:20.800Z,26.77
2019-03-20T06:21:27.873Z,25.23
2019-03-20T06:22:35.172Z,25.02
2019-03-20T06:23:42.422Z,24.77
2019-03-20T06:24:49.791Z,23.65
2019-03-20T06:25:57.555Z,22.62
2019-03-20T06:27:04.775Z,23.77
2019-03-20T06:28:11.724Z,24.57
2019-03-20T06:29:20.196Z,23.85
2019-03-20T06:30:27.510Z,23.15
2019-03-20T06:31:34.974Z,24.07
2019-03-20T06:32:42.631Z,22.93
2019-03-20T06:33:50.157Z,23.40
2019-03-20T06:34:57.531Z,23.42
2019-03-20T06:36:04.919Z,23.05
2019-03-20T06:37:12.398Z,23.77
2019-03-20T06:38:19.751Z,21.97
2019-03-20T06:39:28.030Z,22.62
2019-03-20T06:40:35.136Z,22.40
2019-03-20T06:41:42.565Z,20.80
2019-03-20T06:42:50.050Z,22.02
2019-03-20T06:43:57.592Z,21.75
2019-03-20T06:45:05.311Z,22.62
2019-03-20T06:46:12.627Z,22.85
2019-03-20T06:47:19.729Z,21.30
2019-03-20T06:48:27.280Z,21.07
2019-03-20T06:49:34.653Z,21.45
2019-03-20T06:50:42.222Z,21.52
2019-03-20T06:51:49.527Z,21.15
2019-03-20T06:52:56.762Z,20.20
2019-03-20T06:54:04.139Z,20.12
2019-03-20T06:55:11.847Z,20.70
2019-03-20T06:56:19.102Z,20.27
2019-03-20T06:57:26.521Z,19.00
2019-03-20T06:58:34.246Z,19.10
2019-03-20T07:00:20.298Z,20.12
2019-03-20T07:01:29.552Z,18.15
2019-03-20T07:02:37.229Z,18.92
2019-03-20T07:03:55.250Z,19.52
2019-03-20T07:05:31.734Z,19.57
2019-03-20T07:07:06.055Z,20.37
2019-03-20T07:08:12.869Z,18.73
2019-03-20T07:09:40.288Z,20.95
2019-03-20T07:11:08.677Z,18.98
2019-03-20T07:12:16.142Z,19.85
2019-03-20T07:13:23.362Z,20.08
2019-03-20T07:14:30.826Z,19.50
2019-03-20T07:15:39.219Z,19.82
2019-03-20T07:16:46.420Z,19.70
2019-03-20T07:17:53.859Z,18.05
2019-03-20T07:19:02.059Z,16.87
2019-03-20T07:20:10.306Z,18.00
2019-03-20T07:21:18.754Z,17.98
2019-03-20T07:22:28.080Z,18.05
2019-03-20T07:23:35.581Z,18.65
2019-03-20T07:24:43.040Z,18.07
2019-03-20T07:25:50.555Z,17.77
2019-03-20T07:26:57.912Z,18.50
2019-03-20T07:28:05.413Z,17.65
2019-03-20T07:29:12.758Z,19.07
2019-03-20T07:30:20.389Z,18.37
2019-03-20T07:31:27.807Z,18.32
2019-03-20T07:32:35.616Z,17.45
2019-03-20T07:33:43.090Z,16.87
2019-03-20T07:34:50.604Z,17.48
2019-03-20T07:35:57.851Z,15.50
2019-03-20T07:37:05.072Z,16.25
2019-03-20T07:38:12.131Z,17.27
2019-03-20T07:39:19.364Z,17.85
2019-03-20T07:40:26.602Z,17.85
2019-03-20T07:41:35.549Z,17.92
2019-03-20T07:42:42.926Z,17.80
2019-03-20T07:43:50.802Z,16.40
2019-03-20T07:44:58.414Z,16.87
2019-03-20T07:46:05.797Z,16.42
2019-03-20T07:47:13.195Z,17.12
2019-03-20T07:48:22.425Z,16.67
2019-03-20T07:49:29.875Z,16.02
2019-03-20T07:50:37.487Z,16.95
2019-03-20T07:51:44.812Z,15.58
2019-03-20T07:52:52.155Z,15.88
2019-03-20T07:53:59.464Z,16.77
2019-03-20T07:55:07.015Z,15.55
2019-03-20T07:56:14.678Z,15.53
2019-03-20T07:57:22.069Z,16.30
2019-03-20T07:58:29.460Z,15.80
2019-03-20T07:59:36.959Z,14.65
2019-03-20T08:00:44.538Z,14.20
2019-03-20T08:01:51.852Z,15.38
2019-03-20T08:02:59.165Z,13.20
2019-03-20T08:04:06.694Z,12.63
2019-03-20T08:05:14.503Z,12.23
2019-03-20T08:06:22.311Z,12.35
2019-03-20T08:07:30.051Z,11.78
2019-03-20T08:08:37.931Z,10.82
2019-03-20T08:09:45.605Z,11.53
2019-03-20T08:10:53.424Z,12.65
2019-03-20T08:12:00.972Z,11.93
2019-03-20T08:13:08.508Z,12.85
2019-03-20T08:14:16.296Z,12.37
2019-03-20T08:15:24.121Z,12.47
2019-03-20T08:16:31.960Z,12.18
2019-03-20T08:17:39.582Z,13.28
2019-03-20T08:18:47.165Z,12.53
2019-03-20T08:19:54.862Z,13.35
2019-03-20T08:21:02.576Z,12.25
2019-03-20T08:22:10.155Z,13.15
2019-03-20T08:23:17.703Z,11.65
2019-03-20T08:24:25.476Z,12.73
2019-03-20T08:25:32.966Z,12.53
2019-03-20T08:26:40.862Z,13.53
2019-03-20T08:27:48.709Z,14.07
2019-03-20T08:28:56.670Z,13.43
2019-03-20T08:30:04.559Z,12.82
2019-03-20T08:31:12.765Z,11.33
2019-03-20T08:32:20.633Z,10.65
2019-03-20T08:33:28.512Z,10.50
2019-03-20T08:34:36.342Z,8.93
2019-03-20T08:35:44.420Z,7.15
2019-03-20T08:36:51.970Z,6.53
2019-03-20T08:37:59.756Z,7.60
2019-03-20T08:39:08.390Z,8.25
2019-03-20T08:40:16.164Z,9.28
2019-03-20T08:41:24.036Z,10.55
2019-03-20T08:42:38.194Z,10.25
2019-03-20T08:43:46.041Z,9.65
2019-03-20T08:44:55.553Z,7.20
2019-03-20T08:46:03.704Z,4.97
2019-03-20T08:47:11.771Z,5.12
2019-03-20T08:48:19.752Z,5.55
2019-03-20T08:49:27.667Z,6.28
2019-03-20T08:50:35.604Z,7.03
2019-03-20T08:51:43.832Z,6.17
2019-03-20T08:52:51.710Z,6.58
2019-03-20T08:53:59.650Z,5.78
2019-03-20T08:55:08.187Z,5.95
2019-03-20T08:56:17.504Z,6.30
2019-03-20T08:57:25.192Z,5.78
2019-03-20T08:58:33.041Z,6.15
2019-03-20T08:59:41.244Z,6.03
2019-03-20T09:00:48.832Z,5.08
2019-03-20T09:01:56.560Z,4.47
2019-03-20T09:03:04.252Z,5.00
2019-03-20T09:04:12.122Z,5.40
2019-03-20T09:05:19.663Z,6.00
2019-03-20T09:06:27.405Z,8.68
2019-03-20T09:07:46.677Z,5.60
2019-03-20T09:08:45.155Z,5.42
2019-03-20T09:09:53.133Z,5.50
2019-03-20T09:11:01.009Z,5.60
2019-03-20T09:12:09.102Z,5.03
2019-03-20T09:13:16.439Z,4.95
2019-03-20T09:14:24.275Z,5.42
2019-03-20T09:15:32.231Z,5.90
2019-03-20T09:16:39.819Z,6.45
2019-03-20T09:17:47.663Z,7.78
2019-03-20T09:18:55.187Z,8.18
2019-03-20T09:20:02.968Z,6.80
2019-03-20T09:21:10.730Z,7.03
2019-03-20T09:22:18.525Z,6.85
2019-03-20T09:23:26.120Z,7.22
2019-03-20T09:24:33.820Z,7.17
2019-03-20T09:25:41.441Z,7.15
2019-03-20T09:26:49.358Z,8.10
2019-03-20T09:27:57.085Z,7.87
2019-03-20T09:29:04.959Z,7.20
2019-03-20T09:30:17.782Z,6.60
2019-03-20T09:31:25.253Z,6.70
2019-03-20T09:32:33.064Z,7.62
2019-03-20T09:33:40.371Z,6.78
2019-03-20T09:34:48.248Z,6.70
2019-03-20T09:35:55.923Z,8.03
2019-03-20T09:37:03.660Z,7.90
2019-03-20T09:38:11.270Z,7.70
2019-03-20T09:39:19.102Z,8.18
2019-03-20T09:40:26.876Z,8.63
2019-03-20T09:41:34.606Z,8.95
2019-03-20T09:42:42.414Z,8.70
2019-03-20T09:43:49.702Z,8.15
2019-03-20T09:44:58.620Z,9.15
2019-03-20T09:46:06.358Z,8.43
2019-03-20T09:47:13.989Z,8.38
2019-03-20T09:48:22.572Z,9.20
2019-03-20T09:49:30.052Z,8.38
2019-03-20T09:50:37.978Z,8.25
2019-03-20T09:51:45.694Z,7.75
2019-03-20T09:52:53.365Z,7.78
2019-03-20T09:54:01.102Z,7.10
2019-03-20T09:55:09.075Z,8.18
2019-03-20T09:56:16.944Z,6.45
2019-03-20T09:57:24.413Z,7.20
2019-03-20T09:58:32.969Z,6.40
2019-03-20T09:59:40.911Z,6.62
2019-03-20T10:00:48.539Z,6.72
2019-03-20T10:01:56.193Z,7.62
2019-03-20T10:03:03.743Z,7.80
2019-03-20T10:04:11.507Z,6.03
2019-03-20T10:05:19.437Z,5.62
2019-03-20T10:06:27.603Z,6.83
2019-03-20T10:07:35.394Z,7.25
2019-03-20T10:08:53.515Z,7.55
2019-03-20T10:09:52.382Z,7.15
2019-03-20T10:11:00.334Z,6.83
2019-03-20T10:12:08.297Z,6.87
2019-03-20T10:13:15.631Z,7.00
2019-03-20T10:14:23.435Z,7.28
2019-03-20T10:15:31.321Z,7.53
2019-03-20T10:16:38.685Z,7.58
2019-03-20T10:17:49.881Z,6.12
2019-03-20T10:18:57.432Z,6.35
2019-03-20T10:20:06.686Z,6.60
2019-03-20T10:21:14.025Z,7.17
2019-03-20T10:22:23.051Z,6.05
2019-03-20T10:23:30.628Z,6.45
2019-03-20T10:24:38.191Z,5.22
2019-03-20T10:25:46.171Z,5.78
2019-03-20T10:26:53.846Z,5.28
2019-03-20T10:28:01.602Z,5.62
2019-03-20T10:29:09.709Z,5.17
2019-03-20T10:30:19.354Z,5.53
2019-03-20T10:31:26.615Z,5.85
2019-03-20T10:32:34.045Z,7.85
2019-03-20T10:33:41.914Z,6.70
2019-03-20T10:34:49.803Z,5.67
2019-03-20T10:35:57.788Z,5.53
2019-03-20T10:37:06.741Z,6.00
2019-03-20T10:38:14.383Z,6.33
2019-03-20T10:39:22.149Z,6.03
2019-03-20T10:40:29.754Z,6.37
2019-03-20T10:41:37.607Z,6.55
2019-03-20T10:42:45.060Z,6.65
2019-03-20T10:43:52.701Z,5.70
2019-03-20T10:45:00.455Z,5.00
2019-03-20T10:46:08.232Z,4.95
2019-03-20T10:47:16.112Z,6.72
2019-03-20T10:48:24.031Z,6.15
2019-03-20T10:49:32.903Z,6.55
2019-03-20T10:50:40.612Z,5.80
2019-03-20T10:51:48.211Z,6.40
2019-03-20T10:52:56.063Z,6.10
2019-03-20T10:54:03.665Z,7.67
2019-03-20T10:55:12.745Z,6.15
2019-03-20T10:56:21.390Z,5.75
2019-03-20T10:57:29.197Z,6.03
2019-03-20T10:58:37.479Z,6.12
2019-03-20T10:59:44.766Z,5.55
2019-03-20T11:00:52.721Z,5.10
2019-03-20T11:02:00.995Z,4.90
2019-03-20T11:03:09.368Z,5.62
2019-03-20T11:04:17.541Z,5.65
2019-03-20T11:05:24.904Z,5.35
2019-03-20T11:06:32.646Z,6.28
2019-03-20T11:07:40.505Z,5.75
2019-03-20T11:08:48.421Z,5.42
2019-03-20T11:09:55.979Z,5.40
2019-03-20T11:11:03.451Z,6.03
2019-03-20T11:12:12.639Z,5.67
2019-03-20T11:13:20.710Z,6.60
2019-03-20T11:14:28.530Z,6.30
2019-03-20T11:15:36.421Z,6.37
2019-03-20T11:16:44.343Z,6.83
2019-03-20T11:17:51.940Z,11.73
2019-03-20T11:18:59.504Z,7.35
2019-03-20T11:20:07.629Z,6.75
2019-03-20T11:21:15.252Z,7.67
2019-03-20T11:22:22.719Z,7.10
2019-03-20T11:23:30.529Z,6.72
2019-03-20T11:24:38.330Z,6.03
2019-03-20T11:25:45.814Z,5.78
2019-03-20T11:26:53.492Z,6.35
2019-03-20T11:28:01.237Z,6.75
2019-03-20T11:29:08.879Z,6.08
2019-03-20T11:30:21.502Z,5.75
2019-03-20T11:31:29.072Z,6.12
2019-03-20T11:32:36.194Z,5.55
2019-03-20T11:33:44.208Z,6.28
2019-03-20T11:34:52.098Z,7.35
2019-03-20T11:35:59.600Z,7.87
2019-03-20T11:37:07.800Z,7.33
2019-03-20T11:38:15.141Z,9.58
2019-03-20T11:39:29.700Z,8.38
2019-03-20T11:40:32.227Z,10.82
2019-03-20T11:41:39.935Z,10.75
2019-03-20T11:42:47.716Z,15.35
2019-03-20T11:43:55.676Z,8.40
2019-03-20T11:45:03.533Z,7.85
2019-03-20T11:46:11.281Z,9.03
2019-03-20T11:47:19.134Z,8.33
2019-03-20T11:48:26.773Z,7.55
2019-03-20T11:49:34.582Z,13.80
2019-03-20T11:50:42.301Z,9.55
2019-03-20T11:51:50.973Z,8.18
2019-03-20T11:52:58.397Z,8.80
2019-03-20T11:54:07.388Z,7.08
2019-03-20T11:55:15.343Z,6.65
2019-03-20T11:56:22.957Z,7.05
2019-03-20T11:57:30.470Z,8.35
2019-03-20T11:58:37.978Z,7.08
2019-03-20T11:59:45.748Z,8.28
2019-03-20T12:00:53.438Z,6.45
2019-03-20T12:02:00.824Z,7.17
2019-03-20T12:03:08.296Z,7.60
2019-03-20T12:04:16.341Z,8.60
2019-03-20T12:05:23.578Z,9.13
2019-03-20T12:06:31.368Z,8.80
2019-03-20T12:07:39.036Z,8.55
2019-03-20T12:08:46.510Z,8.73
2019-03-20T12:09:54.055Z,8.58
2019-03-20T12:11:01.861Z,7.30
2019-03-20T12:12:09.286Z,7.45
2019-03-20T12:13:16.346Z,7.70
2019-03-20T12:14:24.758Z,7.70
2019-03-20T12:15:32.149Z,7.53
2019-03-20T12:16:39.820Z,8.58
2019-03-20T12:17:47.180Z,17.62
2019-03-20T12:18:54.666Z,9.90
2019-03-20T12:20:02.149Z,7.97
2019-03-20T12:21:09.849Z,7.30
2019-03-20T12:22:17.447Z,7.35
2019-03-20T12:23:24.846Z,8.10
2019-03-20T12:24:32.367Z,10.65
2019-03-20T12:25:39.837Z,10.00
2019-03-20T12:26:47.502Z,9.23
2019-03-20T12:27:54.947Z,8.18
2019-03-20T12:29:02.432Z,7.75
2019-03-20T12:30:12.658Z,10.63
2019-03-20T12:31:20.289Z,8.50
2019-03-20T12:32:28.619Z,6.95
2019-03-20T12:33:35.888Z,7.40
2019-03-20T12:34:43.343Z,7.53
2019-03-20T12:35:51.037Z,7.65
2019-03-20T12:36:58.443Z,7.05
2019-03-20T12:38:14.366Z,5.83
2019-03-20T12:39:16.324Z,7.80
2019-03-20T12:40:25.583Z,7.28
2019-03-20T12:41:33.329Z,7.72
2019-03-20T12:42:40.655Z,7.40
2019-03-20T12:43:48.139Z,7.95
2019-03-20T12:44:55.595Z,7.28
2019-03-20T12:46:03.364Z,7.92
2019-03-20T12:47:10.949Z,7.70
2019-03-20T12:48:18.520Z,7.12
2019-03-20T12:49:26.134Z,7.17
2019-03-20T12:50:33.597Z,7.20
2019-03-20T12:51:41.297Z,7.25
2019-03-20T12:52:48.570Z,6.83
2019-03-20T12:53:55.829Z,7.10
2019-03-20T12:55:03.209Z,7.40
2019-03-20T12:56:11.235Z,7.95
2019-03-20T12:57:18.797Z,8.05
2019-03-20T12:58:26.182Z,7.03
2019-03-20T12:59:33.466Z,6.60
2019-03-20T13:00:41.122Z,8.00
2019-03-20T13:01:48.531Z,7.40
2019-03-20T13:02:56.007Z,7.28
2019-03-20T13:04:03.409Z,7.08
2019-03-20T13:05:12.097Z,7.78
2019-03-20T13:06:19.655Z,7.92
2019-03-20T13:07:27.025Z,8.63
2019-03-20T13:08:34.298Z,9.10
2019-03-20T13:09:41.814Z,8.80
2019-03-20T13:10:49.606Z,7.92
2019-03-20T13:11:58.398Z,9.38
2019-03-20T13:13:07.097Z,8.33
2019-03-20T13:14:14.638Z,6.62
2019-03-20T13:15:23.339Z,7.65
2019-03-20T13:16:30.931Z,6.35
2019-03-20T13:17:38.491Z,6.65
2019-03-20T13:18:45.865Z,6.70
2019-03-20T13:19:53.067Z,6.72
2019-03-20T13:21:00.368Z,6.83
2019-03-20T13:22:08.183Z,6.80
2019-03-20T13:23:17.091Z,6.90
2019-03-20T13:24:24.678Z,6.83
2019-03-20T13:25:33.508Z,7.05
2019-03-20T13:26:40.933Z,7.30
2019-03-20T13:27:48.472Z,7.10
2019-03-20T13:28:56.203Z,7.40
2019-03-20T13:30:03.869Z,8.30
2019-03-20T13:31:14.417Z,8.63
2019-03-20T13:32:22.118Z,10.53
2019-03-20T13:33:29.779Z,10.03
2019-03-20T13:34:37.309Z,9.93
2019-03-20T13:35:44.987Z,10.63
2019-03-20T13:36:52.443Z,9.55
2019-03-20T13:38:00.130Z,9.78
2019-03-20T13:39:08.919Z,11.08
2019-03-20T13:40:16.444Z,12.85
2019-03-20T13:41:24.162Z,8.83
2019-03-20T13:42:31.647Z,7.55
2019-03-20T13:43:39.271Z,9.68
2019-03-20T13:44:46.488Z,7.65
2019-03-20T13:45:53.776Z,7.45
2019-03-20T13:47:01.565Z,6.75
2019-03-20T13:48:09.519Z,6.50
2019-03-20T13:49:18.375Z,6.87
2019-03-20T13:50:25.860Z,8.28
2019-03-20T13:51:33.395Z,7.92
2019-03-20T13:52:40.833Z,7.10
2019-03-20T13:53:48.455Z,6.80
2019-03-20T13:54:55.560Z,7.15
2019-03-20T13:56:02.990Z,6.78
2019-03-20T13:57:10.419Z,6.90
2019-03-20T13:58:18.088Z,7.20
2019-03-20T13:59:25.765Z,6.85
2019-03-20T14:00:33.157Z,6.03
2019-03-20T14:01:40.709Z,6.75
2019-03-20T14:02:48.141Z,5.67
2019-03-20T14:03:55.519Z,6.35
2019-03-20T14:05:03.007Z,6.55
2019-03-20T14:06:10.661Z,6.05
2019-03-20T14:07:18.047Z,6.55
2019-03-20T14:08:25.648Z,6.70
2019-03-20T14:09:33.517Z,6.15
2019-03-20T14:10:50.222Z,6.33
2019-03-20T14:11:50.518Z,6.33
2019-03-20T14:12:58.009Z,6.30
2019-03-20T14:14:05.755Z,6.17
2019-03-20T14:15:13.606Z,5.67
2019-03-20T14:16:21.340Z,6.08
2019-03-20T14:17:29.286Z,5.78
2019-03-20T14:18:36.604Z,6.28
2019-03-20T14:19:44.263Z,5.50
2019-03-20T14:20:52.030Z,5.42
2019-03-20T14:21:59.593Z,5.62
2019-03-20T14:23:07.086Z,6.33
2019-03-20T14:24:14.987Z,6.28
2019-03-20T14:25:22.605Z,6.15
2019-03-20T14:26:30.587Z,6.58
2019-03-20T14:27:38.395Z,5.92
2019-03-20T14:28:45.857Z,6.00
2019-03-20T14:29:53.636Z,6.00
2019-03-20T14:31:01.188Z,5.72
2019-03-20T14:32:08.690Z,5.92
2019-03-20T14:33:16.393Z,6.15
2019-03-20T14:34:24.160Z,6.25
2019-03-20T14:35:32.030Z,5.10
2019-03-20T14:36:39.479Z,6.17
2019-03-20T14:37:47.119Z,6.15
2019-03-20T14:38:56.058Z,6.05
2019-03-20T14:40:03.774Z,6.35
2019-03-20T14:41:21.123Z,6.15
2019-03-20T14:42:20.856Z,6.08
2019-03-20T14:43:28.326Z,6.15
2019-03-20T14:44:36.006Z,6.45
2019-03-20T14:45:43.247Z,6.42